Main page
METAR-TAF:

METAR-TAF

Airports :

Biju Patnaik International Airport

Bhubaneswar, India

latitude: 20-14-40N, longitude: 85-49-04E, elevation: 45 m

Current weather observation

The report was made 28 minutes ago, at 08:00 UTC
Wind 7 kt from the South
Temperature 34°C
Humidity 39%
Pressure 1012 hPa
Visibility: 5000 m
Few clouds at a height of 2000 ft
haze,

METAR: VEBS 030800Z 19007KT 5000 HZ FEW020 34/18 Q1012 NOSIG

Time: 13:58 (08:28 UTC)

Forecast

The report was made 3 hours and 28 minutes ago, at 05:00 UTC
Forecast valid from 03 at 06 UTC to 03 at 15 UTC
Wind 3 kt from the South/Southwest
Visibility: 5000 m
Scattered clouds at a height of 2000 ft
haze
Becoming
from 03 at 13 UTC to 03 at 15 UTC
Visibility: 3000 m
Few clouds at a height of 2000 ft
haze,

TAF: VEBS 030500Z 0306/0315 20003KT 5000 HZ SCT020 BECMG 0313/0315 3000 HZ FEW020

Weather observations and forecasts of more than 4000 airports (METAR and TAF reports).

The available stations are represented by yellow and red dots on the map.

Hover mouse over dot to see the name of the station.

Then click to see weather observations and forecasts.

To change the map : click on the green buttons with a black cross to zoom in, on the green button with a dash to zoom out, or on the green arrows for adjacent maps.


METAR-TAF: